sensor_id;sensor_type;location;lat;lon;timestamp;P1;durP1;ratioP1;P2;durP2;ratioP2
5339;SDS011;2692;48.848;8.924;2023-02-28T00:00:21;0.90;;;0.67;;
5339;SDS011;2692;48.848;8.924;2023-02-28T00:02:46;4.70;;;0.93;;
5339;SDS011;2692;48.848;8.924;2023-02-28T00:05:13;1.10;;;0.60;;
5339;SDS011;2692;48.848;8.924;2023-02-28T00:07:38;1.47;;;0.70;;
5339;SDS011;2692;48.848;8.924;2023-02-28T00:10:04;1.10;;;0.63;;
5339;SDS011;2692;48.848;8.924;2023-02-28T00:12:31;1.30;;;0.70;;
5339;SDS011;2692;48.848;8.924;2023-02-28T00:14:56;1.00;;;0.50;;
5339;SDS011;2692;48.848;8.924;2023-02-28T00:17:21;0.80;;;0.30;;
5339;SDS011;2692;48.848;8.924;2023-02-28T00:19:50;1.17;;;0.50;;
5339;SDS011;2692;48.848;8.924;2023-02-28T00:22:16;0.90;;;0.50;;
5339;SDS011;2692;48.848;8.924;2023-02-28T00:24:41;1.00;;;0.60;;
5339;SDS011;2692;48.848;8.924;2023-02-28T00:27:06;1.30;;;0.80;;
5339;SDS011;2692;48.848;8.924;2023-02-28T00:29:31;1.53;;;0.80;;
5339;SDS011;2692;48.848;8.924;2023-02-28T00:31:57;0.80;;;0.30;;
5339;SDS011;2692;48.848;8.924;2023-02-28T00:34:22;1.93;;;1.03;;
5339;SDS011;2692;48.848;8.924;2023-02-28T00:36:47;1.30;;;0.77;;
5339;SDS011;2692;48.848;8.924;2023-02-28T00:39:15;1.73;;;0.83;;
5339;SDS011;2692;48.848;8.924;2023-02-28T00:41:40;2.67;;;1.23;;
5339;SDS011;2692;48.848;8.924;2023-02-28T00:44:05;1.73;;;0.87;;
5339;SDS011;2692;48.848;8.924;2023-02-28T00:46:31;2.10;;;1.33;;
5339;SDS011;2692;48.848;8.924;2023-02-28T00:48:56;0.90;;;0.50;;
5339;SDS011;2692;48.848;8.924;2023-02-28T00:51:21;1.60;;;1.33;;
5339;SDS011;2692;48.848;8.924;2023-02-28T00:53:46;1.00;;;0.47;;
5339;SDS011;2692;48.848;8.924;2023-02-28T00:56:11;1.00;;;0.70;;
5339;SDS011;2692;48.848;8.924;2023-02-28T00:58:36;1.17;;;0.60;;
5339;SDS011;2692;48.848;8.924;2023-02-28T01:01:02;1.40;;;0.80;;
5339;SDS011;2692;48.848;8.924;2023-02-28T01:03:27;1.50;;;0.80;;
5339;SDS011;2692;48.848;8.924;2023-02-28T01:05:52;1.50;;;0.90;;
5339;SDS011;2692;48.848;8.924;2023-02-28T01:08:20;1.40;;;1.20;;
5339;SDS011;2692;48.848;8.924;2023-02-28T01:10:45;0.80;;;0.40;;
5339;SDS011;2692;48.848;8.924;2023-02-28T01:13:11;1.63;;;0.83;;
5339;SDS011;2692;48.848;8.924;2023-02-28T01:15:36;1.00;;;0.60;;
5339;SDS011;2692;48.848;8.924;2023-02-28T01:18:01;1.43;;;1.27;;
5339;SDS011;2692;48.848;8.924;2023-02-28T01:20:27;1.00;;;0.50;;
5339;SDS011;2692;48.848;8.924;2023-02-28T01:22:52;0.80;;;0.47;;
5339;SDS011;2692;48.848;8.924;2023-02-28T01:25:17;1.23;;;0.60;;
5339;SDS011;2692;48.848;8.924;2023-02-28T01:27:42;0.90;;;0.50;;
5339;SDS011;2692;48.848;8.924;2023-02-28T01:30:08;1.40;;;0.80;;
5339;SDS011;2692;48.848;8.924;2023-02-28T01:32:33;1.53;;;0.73;;
5339;SDS011;2692;48.848;8.924;2023-02-28T01:34:59;1.37;;;0.70;;
5339;SDS011;2692;48.848;8.924;2023-02-28T01:37:24;1.30;;;0.50;;
5339;SDS011;2692;48.848;8.924;2023-02-28T01:39:49;1.10;;;0.63;;
5339;SDS011;2692;48.848;8.924;2023-02-28T01:42:14;0.90;;;0.50;;
5339;SDS011;2692;48.848;8.924;2023-02-28T01:44:57;0.85;;;0.50;;
5339;SDS011;2692;48.848;8.924;2023-02-28T01:47:23;1.53;;;0.90;;
5339;SDS011;2692;48.848;8.924;2023-02-28T01:49:49;2.17;;;1.23;;
5339;SDS011;2692;48.848;8.924;2023-02-28T01:52:16;1.20;;;0.80;;
5339;SDS011;2692;48.848;8.924;2023-02-28T01:54:43;2.90;;;1.23;;
5339;SDS011;2692;48.848;8.924;2023-02-28T01:57:11;1.00;;;0.50;;
5339;SDS011;2692;48.848;8.924;2023-02-28T02:02:11;0.80;;;0.33;;
5339;SDS011;2692;48.848;8.924;2023-02-28T02:04:41;1.67;;;1.10;;
5339;SDS011;2692;48.848;8.924;2023-02-28T02:07:07;2.80;;;1.30;;
5339;SDS011;2692;48.848;8.924;2023-02-28T02:09:32;1.53;;;0.77;;
5339;SDS011;2692;48.848;8.924;2023-02-28T02:11:58;1.27;;;0.83;;
5339;SDS011;2692;48.848;8.924;2023-02-28T02:14:40;3.43;;;1.33;;
5339;SDS011;2692;48.848;8.924;2023-02-28T02:20:55;0.80;;;0.40;;
5339;SDS011;2692;48.848;8.924;2023-02-28T02:22:52;1.40;;;0.87;;
5339;SDS011;2692;48.848;8.924;2023-02-28T02:25:40;1.03;;;0.80;;
5339;SDS011;2692;48.848;8.924;2023-02-28T02:28:32;1.13;;;1.03;;
5339;SDS011;2692;48.848;8.924;2023-02-28T02:31:01;1.50;;;0.90;;
5339;SDS011;2692;48.848;8.924;2023-02-28T02:33:30;1.80;;;1.27;;
5339;SDS011;2692;48.848;8.924;2023-02-28T02:36:07;1.50;;;0.90;;
5339;SDS011;2692;48.848;8.924;2023-02-28T02:41:33;0.90;;;0.50;;
5339;SDS011;2692;48.848;8.924;2023-02-28T02:44:04;1.20;;;0.70;;
5339;SDS011;2692;48.848;8.924;2023-02-28T02:46:33;0.97;;;0.67;;
5339;SDS011;2692;48.848;8.924;2023-02-28T02:48:59;0.90;;;0.50;;
5339;SDS011;2692;48.848;8.924;2023-02-28T02:51:25;3.33;;;1.53;;
5339;SDS011;2692;48.848;8.924;2023-02-28T02:53:52;1.73;;;1.17;;
5339;SDS011;2692;48.848;8.924;2023-02-28T02:56:19;1.40;;;1.10;;
5339;SDS011;2692;48.848;8.924;2023-02-28T02:58:45;1.83;;;0.90;;
5339;SDS011;2692;48.848;8.924;2023-02-28T03:01:12;0.87;;;0.53;;
5339;SDS011;2692;48.848;8.924;2023-02-28T03:03:39;2.70;;;0.93;;
5339;SDS011;2692;48.848;8.924;2023-02-28T03:06:05;1.23;;;0.87;;
5339;SDS011;2692;48.848;8.924;2023-02-28T03:08:33;0.80;;;0.40;;
5339;SDS011;2692;48.848;8.924;2023-02-28T03:11:00;3.27;;;1.43;;
5339;SDS011;2692;48.848;8.924;2023-02-28T03:13:37;1.17;;;0.97;;
5339;SDS011;2692;48.848;8.924;2023-02-28T03:24:07;2.53;;;0.67;;
5339;SDS011;2692;48.848;8.924;2023-02-28T03:26:34;1.63;;;1.03;;
5339;SDS011;2692;48.848;8.924;2023-02-28T03:31:42;2.33;;;1.50;;
5339;SDS011;2692;48.848;8.924;2023-02-28T03:36:54;0.90;;;0.50;;
5339;SDS011;2692;48.848;8.924;2023-02-28T03:39:21;1.53;;;1.03;;
5339;SDS011;2692;48.848;8.924;2023-02-28T03:41:51;1.83;;;1.33;;
5339;SDS011;2692;48.848;8.924;2023-02-28T03:44:18;1.60;;;1.00;;
5339;SDS011;2692;48.848;8.924;2023-02-28T03:46:50;2.30;;;1.37;;
5339;SDS011;2692;48.848;8.924;2023-02-28T03:49:19;1.27;;;0.87;;
5339;SDS011;2692;48.848;8.924;2023-02-28T03:51:46;3.53;;;1.93;;
5339;SDS011;2692;48.848;8.924;2023-02-28T03:54:12;1.20;;;0.93;;
5339;SDS011;2692;48.848;8.924;2023-02-28T03:56:40;2.23;;;1.50;;
5339;SDS011;2692;48.848;8.924;2023-02-28T03:59:22;8.40;;;1.00;;
5339;SDS011;2692;48.848;8.924;2023-02-28T04:01:48;1.27;;;0.77;;
5339;SDS011;2692;48.848;8.924;2023-02-28T04:04:14;0.90;;;0.70;;
5339;SDS011;2692;48.848;8.924;2023-02-28T04:06:39;1.30;;;0.97;;
5339;SDS011;2692;48.848;8.924;2023-02-28T04:09:05;1.77;;;1.13;;
5339;SDS011;2692;48.848;8.924;2023-02-28T04:14:00;1.20;;;0.90;;
5339;SDS011;2692;48.848;8.924;2023-02-28T04:16:25;1.80;;;1.17;;
5339;SDS011;2692;48.848;8.924;2023-02-28T04:18:50;1.00;;;0.65;;
5339;SDS011;2692;48.848;8.924;2023-02-28T04:21:15;2.00;;;1.02;;
5339;SDS011;2692;48.848;8.924;2023-02-28T04:23:40;4.00;;;0.80;;
5339;SDS011;2692;48.848;8.924;2023-02-28T04:26:05;1.47;;;1.00;;
5339;SDS011;2692;48.848;8.924;2023-02-28T04:28:31;1.37;;;1.00;;
5339;SDS011;2692;48.848;8.924;2023-02-28T04:30:57;1.33;;;1.23;;
5339;SDS011;2692;48.848;8.924;2023-02-28T04:33:23;1.10;;;0.93;;
5339;SDS011;2692;48.848;8.924;2023-02-28T04:35:57;1.43;;;1.30;;
5339;SDS011;2692;48.848;8.924;2023-02-28T04:38:22;1.90;;;1.40;;
5339;SDS011;2692;48.848;8.924;2023-02-28T04:40:47;0.90;;;0.80;;
5339;SDS011;2692;48.848;8.924;2023-02-28T04:43:12;1.73;;;1.27;;
5339;SDS011;2692;48.848;8.924;2023-02-28T04:45:38;3.10;;;2.00;;
5339;SDS011;2692;48.848;8.924;2023-02-28T04:48:03;1.10;;;0.73;;
5339;SDS011;2692;48.848;8.924;2023-02-28T04:50:28;1.27;;;1.17;;
5339;SDS011;2692;48.848;8.924;2023-02-28T04:52:53;2.70;;;2.00;;
5339;SDS011;2692;48.848;8.924;2023-02-28T04:55:19;1.40;;;0.70;;
5339;SDS011;2692;48.848;8.924;2023-02-28T04:57:44;2.47;;;1.67;;
5339;SDS011;2692;48.848;8.924;2023-02-28T05:00:10;1.90;;;1.63;;
5339;SDS011;2692;48.848;8.924;2023-02-28T05:02:36;1.50;;;1.20;;
5339;SDS011;2692;48.848;8.924;2023-02-28T05:05:01;1.97;;;1.47;;
5339;SDS011;2692;48.848;8.924;2023-02-28T05:07:27;2.50;;;1.40;;
5339;SDS011;2692;48.848;8.924;2023-02-28T05:09:52;1.20;;;0.80;;
5339;SDS011;2692;48.848;8.924;2023-02-28T05:12:18;2.97;;;1.70;;
5339;SDS011;2692;48.848;8.924;2023-02-28T05:14:43;2.50;;;1.93;;
5339;SDS011;2692;48.848;8.924;2023-02-28T05:17:09;2.80;;;1.80;;
5339;SDS011;2692;48.848;8.924;2023-02-28T05:19:34;5.20;;;2.20;;
5339;SDS011;2692;48.848;8.924;2023-02-28T05:21:59;1.48;;;1.08;;
5339;SDS011;2692;48.848;8.924;2023-02-28T05:24:24;6.40;;;2.30;;
5339;SDS011;2692;48.848;8.924;2023-02-28T05:26:50;1.83;;;1.40;;
5339;SDS011;2692;48.848;8.924;2023-02-28T05:29:16;1.50;;;1.40;;
5339;SDS011;2692;48.848;8.924;2023-02-28T05:31:42;1.10;;;1.00;;
5339;SDS011;2692;48.848;8.924;2023-02-28T05:34:07;1.33;;;1.20;;
5339;SDS011;2692;48.848;8.924;2023-02-28T05:36:32;1.20;;;1.10;;
5339;SDS011;2692;48.848;8.924;2023-02-28T05:38:57;2.07;;;1.80;;
5339;SDS011;2692;48.848;8.924;2023-02-28T05:41:23;1.77;;;1.27;;
5339;SDS011;2692;48.848;8.924;2023-02-28T05:43:48;2.70;;;2.03;;
5339;SDS011;2692;48.848;8.924;2023-02-28T05:46:13;2.20;;;1.57;;
5339;SDS011;2692;48.848;8.924;2023-02-28T05:48:39;2.47;;;1.63;;
5339;SDS011;2692;48.848;8.924;2023-02-28T05:51:05;2.10;;;1.83;;
5339;SDS011;2692;48.848;8.924;2023-02-28T05:53:30;2.40;;;1.60;;
5339;SDS011;2692;48.848;8.924;2023-02-28T05:55:56;2.00;;;1.13;;
5339;SDS011;2692;48.848;8.924;2023-02-28T05:58:21;1.67;;;1.27;;
5339;SDS011;2692;48.848;8.924;2023-02-28T06:00:46;1.30;;;1.20;;
5339;SDS011;2692;48.848;8.924;2023-02-28T06:03:12;1.87;;;1.70;;
5339;SDS011;2692;48.848;8.924;2023-02-28T06:05:37;6.30;;;2.35;;
5339;SDS011;2692;48.848;8.924;2023-02-28T06:08:03;3.00;;;2.47;;
5339;SDS011;2692;48.848;8.924;2023-02-28T06:10:30;2.30;;;1.50;;
5339;SDS011;2692;48.848;8.924;2023-02-28T06:12:55;2.67;;;2.10;;
5339;SDS011;2692;48.848;8.924;2023-02-28T06:15:24;2.60;;;2.07;;
5339;SDS011;2692;48.848;8.924;2023-02-28T06:17:49;3.03;;;1.90;;
5339;SDS011;2692;48.848;8.924;2023-02-28T06:20:14;4.82;;;2.03;;
5339;SDS011;2692;48.848;8.924;2023-02-28T06:22:39;6.53;;;2.47;;
5339;SDS011;2692;48.848;8.924;2023-02-28T06:25:05;1.47;;;1.20;;
5339;SDS011;2692;48.848;8.924;2023-02-28T06:27:31;3.13;;;2.53;;
5339;SDS011;2692;48.848;8.924;2023-02-28T06:29:56;3.43;;;2.43;;
5339;SDS011;2692;48.848;8.924;2023-02-28T06:32:21;2.73;;;2.10;;
5339;SDS011;2692;48.848;8.924;2023-02-28T06:34:46;1.43;;;1.33;;
5339;SDS011;2692;48.848;8.924;2023-02-28T06:37:12;1.88;;;1.58;;
5339;SDS011;2692;48.848;8.924;2023-02-28T06:39:37;3.43;;;2.07;;
5339;SDS011;2692;48.848;8.924;2023-02-28T06:42:02;2.70;;;1.95;;
5339;SDS011;2692;48.848;8.924;2023-02-28T06:44:27;4.33;;;1.87;;
5339;SDS011;2692;48.848;8.924;2023-02-28T06:47:00;2.03;;;1.33;;
5339;SDS011;2692;48.848;8.924;2023-02-28T06:49:27;3.17;;;1.40;;
5339;SDS011;2692;48.848;8.924;2023-02-28T06:51:52;4.60;;;1.77;;
5339;SDS011;2692;48.848;8.924;2023-02-28T06:54:17;1.65;;;1.17;;
5339;SDS011;2692;48.848;8.924;2023-02-28T06:56:43;2.37;;;1.30;;
5339;SDS011;2692;48.848;8.924;2023-02-28T06:59:08;2.03;;;1.17;;
5339;SDS011;2692;48.848;8.924;2023-02-28T07:01:33;7.93;;;2.20;;
5339;SDS011;2692;48.848;8.924;2023-02-28T07:03:59;3.70;;;2.47;;
5339;SDS011;2692;48.848;8.924;2023-02-28T07:06:25;2.80;;;1.80;;
5339;SDS011;2692;48.848;8.924;2023-02-28T07:08:51;2.30;;;1.60;;
5339;SDS011;2692;48.848;8.924;2023-02-28T07:11:17;1.67;;;1.33;;
5339;SDS011;2692;48.848;8.924;2023-02-28T07:13:43;2.63;;;1.90;;
5339;SDS011;2692;48.848;8.924;2023-02-28T07:16:09;2.63;;;1.73;;
5339;SDS011;2692;48.848;8.924;2023-02-28T07:18:35;2.80;;;2.20;;
5339;SDS011;2692;48.848;8.924;2023-02-28T07:21:07;1.80;;;1.17;;
5339;SDS011;2692;48.848;8.924;2023-02-28T07:23:33;1.23;;;1.13;;
5339;SDS011;2692;48.848;8.924;2023-02-28T07:25:58;2.40;;;1.30;;
5339;SDS011;2692;48.848;8.924;2023-02-28T07:28:24;1.67;;;1.40;;
5339;SDS011;2692;48.848;8.924;2023-02-28T07:30:49;1.83;;;1.30;;
5339;SDS011;2692;48.848;8.924;2023-02-28T07:33:14;2.90;;;1.67;;
5339;SDS011;2692;48.848;8.924;2023-02-28T07:35:40;1.57;;;1.40;;
5339;SDS011;2692;48.848;8.924;2023-02-28T07:38:05;1.53;;;1.10;;
5339;SDS011;2692;48.848;8.924;2023-02-28T07:40:32;2.83;;;1.60;;
5339;SDS011;2692;48.848;8.924;2023-02-28T07:42:58;3.10;;;2.20;;
5339;SDS011;2692;48.848;8.924;2023-02-28T07:45:23;1.57;;;1.17;;
5339;SDS011;2692;48.848;8.924;2023-02-28T07:47:49;2.07;;;1.60;;
5339;SDS011;2692;48.848;8.924;2023-02-28T07:50:15;1.60;;;1.50;;
5339;SDS011;2692;48.848;8.924;2023-02-28T07:52:41;5.33;;;2.60;;
5339;SDS011;2692;48.848;8.924;2023-02-28T07:55:06;6.50;;;1.87;;
5339;SDS011;2692;48.848;8.924;2023-02-28T07:57:32;1.80;;;1.43;;
5339;SDS011;2692;48.848;8.924;2023-02-28T07:59:57;2.80;;;2.03;;
5339;SDS011;2692;48.848;8.924;2023-02-28T08:02:22;2.30;;;1.57;;
5339;SDS011;2692;48.848;8.924;2023-02-28T08:04:47;2.00;;;1.70;;
5339;SDS011;2692;48.848;8.924;2023-02-28T08:07:13;2.43;;;2.10;;
5339;SDS011;2692;48.848;8.924;2023-02-28T08:09:39;3.43;;;2.70;;
5339;SDS011;2692;48.848;8.924;2023-02-28T08:12:04;9.10;;;2.73;;
5339;SDS011;2692;48.848;8.924;2023-02-28T08:14:29;2.53;;;1.47;;
5339;SDS011;2692;48.848;8.924;2023-02-28T08:16:55;3.20;;;1.17;;
5339;SDS011;2692;48.848;8.924;2023-02-28T08:19:20;1.83;;;1.63;;
5339;SDS011;2692;48.848;8.924;2023-02-28T08:21:45;2.30;;;1.67;;
5339;SDS011;2692;48.848;8.924;2023-02-28T08:24:10;4.43;;;3.10;;
5339;SDS011;2692;48.848;8.924;2023-02-28T08:26:35;2.70;;;1.87;;
5339;SDS011;2692;48.848;8.924;2023-02-28T08:29:00;3.50;;;2.63;;
5339;SDS011;2692;48.848;8.924;2023-02-28T08:31:26;5.30;;;3.60;;
5339;SDS011;2692;48.848;8.924;2023-02-28T08:33:51;2.57;;;2.23;;
5339;SDS011;2692;48.848;8.924;2023-02-28T08:36:18;3.93;;;2.60;;
5339;SDS011;2692;48.848;8.924;2023-02-28T08:38:43;2.70;;;2.17;;
5339;SDS011;2692;48.848;8.924;2023-02-28T08:41:10;3.30;;;1.83;;
5339;SDS011;2692;48.848;8.924;2023-02-28T08:43:36;4.63;;;2.40;;
5339;SDS011;2692;48.848;8.924;2023-02-28T08:46:02;2.20;;;1.60;;
5339;SDS011;2692;48.848;8.924;2023-02-28T08:48:28;2.50;;;2.20;;
5339;SDS011;2692;48.848;8.924;2023-02-28T08:51:03;2.10;;;1.83;;
5339;SDS011;2692;48.848;8.924;2023-02-28T08:53:29;7.00;;;2.93;;
5339;SDS011;2692;48.848;8.924;2023-02-28T08:55:58;1.77;;;1.47;;
5339;SDS011;2692;48.848;8.924;2023-02-28T08:58:23;3.77;;;2.43;;
5339;SDS011;2692;48.848;8.924;2023-02-28T09:00:49;3.47;;;2.40;;
5339;SDS011;2692;48.848;8.924;2023-02-28T09:03:15;3.87;;;2.20;;
5339;SDS011;2692;48.848;8.924;2023-02-28T09:05:40;2.43;;;1.63;;
5339;SDS011;2692;48.848;8.924;2023-02-28T09:08:05;3.13;;;2.00;;
5339;SDS011;2692;48.848;8.924;2023-02-28T09:10:31;3.23;;;2.90;;
5339;SDS011;2692;48.848;8.924;2023-02-28T09:12:56;4.25;;;2.50;;
5339;SDS011;2692;48.848;8.924;2023-02-28T09:15:21;2.38;;;1.67;;
5339;SDS011;2692;48.848;8.924;2023-02-28T09:17:46;3.23;;;2.60;;
5339;SDS011;2692;48.848;8.924;2023-02-28T09:20:11;4.45;;;2.72;;
5339;SDS011;2692;48.848;8.924;2023-02-28T09:22:37;1.57;;;1.47;;
5339;SDS011;2692;48.848;8.924;2023-02-28T09:25:02;2.80;;;2.00;;
5339;SDS011;2692;48.848;8.924;2023-02-28T09:27:27;2.07;;;1.80;;
5339;SDS011;2692;48.848;8.924;2023-02-28T09:29:52;2.13;;;1.70;;
5339;SDS011;2692;48.848;8.924;2023-02-28T09:32:17;2.93;;;2.63;;
5339;SDS011;2692;48.848;8.924;2023-02-28T09:34:43;1.83;;;1.67;;
5339;SDS011;2692;48.848;8.924;2023-02-28T09:37:08;2.63;;;1.90;;
5339;SDS011;2692;48.848;8.924;2023-02-28T09:39:33;3.90;;;2.80;;
5339;SDS011;2692;48.848;8.924;2023-02-28T09:41:58;6.90;;;2.87;;
5339;SDS011;2692;48.848;8.924;2023-02-28T09:46:54;4.20;;;2.70;;
5339;SDS011;2692;48.848;8.924;2023-02-28T09:49:22;2.20;;;2.00;;
5339;SDS011;2692;48.848;8.924;2023-02-28T09:51:55;5.00;;;3.00;;
5339;SDS011;2692;48.848;8.924;2023-02-28T09:54:22;3.03;;;2.50;;
5339;SDS011;2692;48.848;8.924;2023-02-28T09:56:52;3.60;;;3.10;;
5339;SDS011;2692;48.848;8.924;2023-02-28T10:02:11;4.30;;;3.10;;
5339;SDS011;2692;48.848;8.924;2023-02-28T10:04:57;3.80;;;2.73;;
5339;SDS011;2692;48.848;8.924;2023-02-28T10:09:52;1.83;;;1.73;;
5339;SDS011;2692;48.848;8.924;2023-02-28T10:12:18;3.17;;;1.80;;
5339;SDS011;2692;48.848;8.924;2023-02-28T10:14:45;4.07;;;1.83;;
5339;SDS011;2692;48.848;8.924;2023-02-28T10:17:15;5.20;;;3.33;;
5339;SDS011;2692;48.848;8.924;2023-02-28T10:19:55;3.50;;;2.70;;
5339;SDS011;2692;48.848;8.924;2023-02-28T10:22:29;3.10;;;2.43;;
5339;SDS011;2692;48.848;8.924;2023-02-28T10:24:56;4.40;;;2.90;;
5339;SDS011;2692;48.848;8.924;2023-02-28T10:27:25;2.90;;;2.17;;
5339;SDS011;2692;48.848;8.924;2023-02-28T10:29:53;2.60;;;2.10;;
5339;SDS011;2692;48.848;8.924;2023-02-28T10:32:20;1.90;;;1.80;;
5339;SDS011;2692;48.848;8.924;2023-02-28T10:34:54;5.10;;;2.93;;
5339;SDS011;2692;48.848;8.924;2023-02-28T10:37:21;1.63;;;1.53;;
5339;SDS011;2692;48.848;8.924;2023-02-28T10:39:46;2.60;;;1.70;;
5339;SDS011;2692;48.848;8.924;2023-02-28T10:42:19;3.43;;;2.80;;
5339;SDS011;2692;48.848;8.924;2023-02-28T10:44:45;2.30;;;1.73;;
5339;SDS011;2692;48.848;8.924;2023-02-28T10:47:14;5.33;;;2.63;;
5339;SDS011;2692;48.848;8.924;2023-02-28T10:49:43;2.13;;;1.73;;
5339;SDS011;2692;48.848;8.924;2023-02-28T10:52:11;3.90;;;2.57;;
5339;SDS011;2692;48.848;8.924;2023-02-28T10:54:36;3.00;;;2.70;;
5339;SDS011;2692;48.848;8.924;2023-02-28T10:59:34;2.50;;;2.03;;
5339;SDS011;2692;48.848;8.924;2023-02-28T11:01:59;1.53;;;1.43;;
5339;SDS011;2692;48.848;8.924;2023-02-28T11:07:00;3.07;;;2.03;;
5339;SDS011;2692;48.848;8.924;2023-02-28T11:09:38;3.67;;;3.07;;
5339;SDS011;2692;48.848;8.924;2023-02-28T11:12:04;7.80;;;2.87;;
5339;SDS011;2692;48.848;8.924;2023-02-28T11:14:31;2.63;;;2.37;;
5339;SDS011;2692;48.848;8.924;2023-02-28T11:17:00;4.37;;;2.77;;
5339;SDS011;2692;48.848;8.924;2023-02-28T11:19:28;3.20;;;2.90;;
5339;SDS011;2692;48.848;8.924;2023-02-28T11:21:59;3.33;;;3.03;;
5339;SDS011;2692;48.848;8.924;2023-02-28T11:26:53;13.93;;;2.43;;
5339;SDS011;2692;48.848;8.924;2023-02-28T11:31:54;3.07;;;2.57;;
5339;SDS011;2692;48.848;8.924;2023-02-28T11:34:25;2.13;;;1.93;;
5339;SDS011;2692;48.848;8.924;2023-02-28T11:36:53;3.50;;;2.40;;
5339;SDS011;2692;48.848;8.924;2023-02-28T11:39:18;2.13;;;1.77;;
5339;SDS011;2692;48.848;8.924;2023-02-28T11:46:47;5.37;;;3.10;;
5339;SDS011;2692;48.848;8.924;2023-02-28T11:51:47;12.33;;;2.77;;
5339;SDS011;2692;48.848;8.924;2023-02-28T11:54:18;4.33;;;2.40;;
5339;SDS011;2692;48.848;8.924;2023-02-28T11:56:50;6.87;;;3.70;;
5339;SDS011;2692;48.848;8.924;2023-02-28T12:01:52;5.53;;;3.33;;
5339;SDS011;2692;48.848;8.924;2023-02-28T12:07:00;9.90;;;3.10;;
5339;SDS011;2692;48.848;8.924;2023-02-28T12:09:36;7.33;;;3.00;;
5339;SDS011;2692;48.848;8.924;2023-02-28T12:19:26;2.07;;;1.67;;
5339;SDS011;2692;48.848;8.924;2023-02-28T12:27:11;3.43;;;2.47;;
5339;SDS011;2692;48.848;8.924;2023-02-28T12:29:53;3.83;;;2.70;;
5339;SDS011;2692;48.848;8.924;2023-02-28T12:32:27;3.87;;;2.40;;
5339;SDS011;2692;48.848;8.924;2023-02-28T12:34:55;4.53;;;2.93;;
5339;SDS011;2692;48.848;8.924;2023-02-28T12:37:25;3.73;;;2.63;;
5339;SDS011;2692;48.848;8.924;2023-02-28T12:39:51;5.90;;;3.70;;
5339;SDS011;2692;48.848;8.924;2023-02-28T12:42:24;3.63;;;2.50;;
5339;SDS011;2692;48.848;8.924;2023-02-28T12:44:51;4.17;;;2.90;;
5339;SDS011;2692;48.848;8.924;2023-02-28T12:47:18;6.40;;;2.97;;
5339;SDS011;2692;48.848;8.924;2023-02-28T12:49:45;5.00;;;2.90;;
5339;SDS011;2692;48.848;8.924;2023-02-28T12:52:11;2.70;;;2.00;;
5339;SDS011;2692;48.848;8.924;2023-02-28T12:57:14;4.37;;;2.57;;
5339;SDS011;2692;48.848;8.924;2023-02-28T13:10:11;3.03;;;2.43;;
5339;SDS011;2692;48.848;8.924;2023-02-28T13:12:38;4.30;;;2.83;;
5339;SDS011;2692;48.848;8.924;2023-02-28T13:15:22;2.73;;;2.43;;
5339;SDS011;2692;48.848;8.924;2023-02-28T13:17:50;2.93;;;2.50;;
5339;SDS011;2692;48.848;8.924;2023-02-28T13:20:19;4.13;;;2.50;;
5339;SDS011;2692;48.848;8.924;2023-02-28T13:22:46;4.43;;;3.20;;
5339;SDS011;2692;48.848;8.924;2023-02-28T13:27:55;3.80;;;2.30;;
5339;SDS011;2692;48.848;8.924;2023-02-28T13:36:00;4.17;;;2.50;;
5339;SDS011;2692;48.848;8.924;2023-02-28T13:38:35;3.30;;;2.13;;
5339;SDS011;2692;48.848;8.924;2023-02-28T13:44:05;3.40;;;2.63;;
5339;SDS011;2692;48.848;8.924;2023-02-28T13:46:34;5.10;;;2.57;;
5339;SDS011;2692;48.848;8.924;2023-02-28T13:51:45;4.33;;;2.60;;
5339;SDS011;2692;48.848;8.924;2023-02-28T13:56:55;2.80;;;2.10;;
5339;SDS011;2692;48.848;8.924;2023-02-28T13:59:50;4.40;;;2.63;;
5339;SDS011;2692;48.848;8.924;2023-02-28T14:02:17;2.97;;;2.20;;
5339;SDS011;2692;48.848;8.924;2023-02-28T14:07:18;4.73;;;2.70;;
5339;SDS011;2692;48.848;8.924;2023-02-28T14:09:50;4.23;;;2.97;;
5339;SDS011;2692;48.848;8.924;2023-02-28T14:15:01;4.90;;;2.60;;
5339;SDS011;2692;48.848;8.924;2023-02-28T14:17:27;2.50;;;2.03;;
5339;SDS011;2692;48.848;8.924;2023-02-28T14:19:52;3.40;;;1.80;;
5339;SDS011;2692;48.848;8.924;2023-02-28T14:37:41;13.70;;;4.00;;
5339;SDS011;2692;48.848;8.924;2023-02-28T14:40:15;2.60;;;2.10;;
5339;SDS011;2692;48.848;8.924;2023-02-28T14:42:46;4.20;;;2.70;;
5339;SDS011;2692;48.848;8.924;2023-02-28T14:45:18;6.73;;;3.03;;
5339;SDS011;2692;48.848;8.924;2023-02-28T14:47:43;4.43;;;2.33;;
5339;SDS011;2692;48.848;8.924;2023-02-28T14:50:17;2.27;;;1.80;;
5339;SDS011;2692;48.848;8.924;2023-02-28T14:52:42;6.80;;;2.10;;
5339;SDS011;2692;48.848;8.924;2023-02-28T14:55:15;6.37;;;3.43;;
5339;SDS011;2692;48.848;8.924;2023-02-28T14:57:43;4.07;;;2.30;;
5339;SDS011;2692;48.848;8.924;2023-02-28T15:00:16;3.73;;;2.93;;
5339;SDS011;2692;48.848;8.924;2023-02-28T15:02:42;4.97;;;2.40;;
5339;SDS011;2692;48.848;8.924;2023-02-28T15:05:17;5.03;;;2.87;;
5339;SDS011;2692;48.848;8.924;2023-02-28T15:07:44;6.67;;;3.80;;
5339;SDS011;2692;48.848;8.924;2023-02-28T15:10:25;9.40;;;3.57;;
5339;SDS011;2692;48.848;8.924;2023-02-28T15:12:52;3.30;;;2.57;;
5339;SDS011;2692;48.848;8.924;2023-02-28T15:15:18;1.70;;;1.50;;
5339;SDS011;2692;48.848;8.924;2023-02-28T15:17:48;2.60;;;2.27;;
5339;SDS011;2692;48.848;8.924;2023-02-28T15:20:15;4.67;;;3.07;;
5339;SDS011;2692;48.848;8.924;2023-02-28T15:22:40;3.83;;;2.30;;
5339;SDS011;2692;48.848;8.924;2023-02-28T15:25:06;3.03;;;2.00;;
5339;SDS011;2692;48.848;8.924;2023-02-28T15:27:33;3.97;;;2.23;;
5339;SDS011;2692;48.848;8.924;2023-02-28T15:29:59;3.83;;;2.20;;
5339;SDS011;2692;48.848;8.924;2023-02-28T15:32:32;5.53;;;3.23;;
5339;SDS011;2692;48.848;8.924;2023-02-28T15:34:58;3.17;;;2.60;;
5339;SDS011;2692;48.848;8.924;2023-02-28T15:40:04;16.87;;;11.10;;
5339;SDS011;2692;48.848;8.924;2023-02-28T15:42:29;6.23;;;4.20;;
5339;SDS011;2692;48.848;8.924;2023-02-28T15:44:56;6.43;;;3.33;;
5339;SDS011;2692;48.848;8.924;2023-02-28T15:47:23;3.60;;;2.77;;
5339;SDS011;2692;48.848;8.924;2023-02-28T15:49:52;4.53;;;3.03;;
5339;SDS011;2692;48.848;8.924;2023-02-28T15:52:19;4.77;;;3.00;;
5339;SDS011;2692;48.848;8.924;2023-02-28T15:54:46;5.03;;;2.37;;
5339;SDS011;2692;48.848;8.924;2023-02-28T15:57:16;4.43;;;3.23;;
5339;SDS011;2692;48.848;8.924;2023-02-28T15:59:45;4.57;;;2.57;;
5339;SDS011;2692;48.848;8.924;2023-02-28T16:02:15;4.23;;;2.53;;
5339;SDS011;2692;48.848;8.924;2023-02-28T16:07:41;5.03;;;2.60;;
5339;SDS011;2692;48.848;8.924;2023-02-28T16:10:08;3.83;;;3.10;;
5339;SDS011;2692;48.848;8.924;2023-02-28T16:12:34;2.23;;;1.97;;
5339;SDS011;2692;48.848;8.924;2023-02-28T16:15:01;4.63;;;2.43;;
5339;SDS011;2692;48.848;8.924;2023-02-28T16:17:28;5.63;;;3.07;;
5339;SDS011;2692;48.848;8.924;2023-02-28T16:19:54;3.40;;;3.00;;
5339;SDS011;2692;48.848;8.924;2023-02-28T16:22:19;3.53;;;2.67;;
5339;SDS011;2692;48.848;8.924;2023-02-28T16:24:45;5.57;;;4.07;;
5339;SDS011;2692;48.848;8.924;2023-02-28T16:27:14;3.40;;;2.63;;
5339;SDS011;2692;48.848;8.924;2023-02-28T16:29:41;5.60;;;2.60;;
5339;SDS011;2692;48.848;8.924;2023-02-28T16:32:06;4.03;;;3.40;;
5339;SDS011;2692;48.848;8.924;2023-02-28T16:34:32;3.73;;;3.30;;
5339;SDS011;2692;48.848;8.924;2023-02-28T16:36:57;7.63;;;4.30;;
5339;SDS011;2692;48.848;8.924;2023-02-28T16:39:23;5.50;;;3.23;;
5339;SDS011;2692;48.848;8.924;2023-02-28T16:41:48;3.83;;;2.50;;
5339;SDS011;2692;48.848;8.924;2023-02-28T16:44:21;5.97;;;3.70;;
5339;SDS011;2692;48.848;8.924;2023-02-28T16:46:49;6.80;;;3.00;;
5339;SDS011;2692;48.848;8.924;2023-02-28T16:49:14;4.43;;;3.07;;
5339;SDS011;2692;48.848;8.924;2023-02-28T16:51:39;6.75;;;4.43;;
5339;SDS011;2692;48.848;8.924;2023-02-28T16:54:04;3.85;;;2.95;;
5339;SDS011;2692;48.848;8.924;2023-02-28T16:56:30;3.20;;;2.70;;
5339;SDS011;2692;48.848;8.924;2023-02-28T16:58:55;4.20;;;3.00;;
5339;SDS011;2692;48.848;8.924;2023-02-28T17:01:22;8.73;;;3.97;;
5339;SDS011;2692;48.848;8.924;2023-02-28T17:03:48;3.37;;;2.63;;
5339;SDS011;2692;48.848;8.924;2023-02-28T17:06:17;3.13;;;2.60;;
5339;SDS011;2692;48.848;8.924;2023-02-28T17:08:44;3.73;;;3.10;;
5339;SDS011;2692;48.848;8.924;2023-02-28T17:11:09;4.30;;;2.30;;
5339;SDS011;2692;48.848;8.924;2023-02-28T17:13:34;5.88;;;3.25;;
5339;SDS011;2692;48.848;8.924;2023-02-28T17:15:59;11.27;;;3.10;;
5339;SDS011;2692;48.848;8.924;2023-02-28T17:18:24;2.53;;;2.33;;